createdAt,value
2017-09-18T00:00:49.865Z,0
2017-09-18T00:02:00.210Z,0
2017-09-18T00:03:10.540Z,0
2017-09-18T00:04:20.560Z,0
2017-09-18T00:05:30.577Z,0
2017-09-18T00:06:40.913Z,0
2017-09-18T00:07:51.254Z,0
2017-09-18T00:09:01.591Z,0
2017-09-18T00:10:11.928Z,0
2017-09-18T00:11:22.266Z,0
2017-09-18T00:12:32.297Z,0
2017-09-18T00:13:42.647Z,0
2017-09-18T00:14:52.995Z,0
2017-09-18T00:16:03.339Z,0
2017-09-18T00:17:13.678Z,0
2017-09-18T00:18:24.248Z,0
2017-09-18T00:19:34.573Z,0
2017-09-18T00:20:44.916Z,0
2017-09-18T00:21:55.246Z,0
2017-09-18T00:23:05.592Z,0
2017-09-18T00:24:15.941Z,0
2017-09-18T00:25:25.963Z,0
2017-09-18T00:26:36.307Z,0
2017-09-18T00:27:46.650Z,0
2017-09-18T00:28:57.149Z,0
2017-09-18T00:30:07.169Z,0
2017-09-18T00:31:19.887Z,0
2017-09-18T00:32:29.911Z,0
2017-09-18T00:33:40.260Z,0
2017-09-18T00:34:50.604Z,0
2017-09-18T00:36:00.962Z,0
2017-09-18T00:37:11.304Z,0
2017-09-18T00:38:21.327Z,0
2017-09-18T00:39:31.358Z,0
2017-09-18T00:40:41.732Z,0
2017-09-18T00:41:52.071Z,0
2017-09-18T00:43:02.103Z,0
2017-09-18T00:44:12.435Z,0
2017-09-18T00:45:22.452Z,0
2017-09-18T00:46:32.488Z,0
2017-09-18T00:47:42.505Z,0
2017-09-18T00:48:52.270Z,0
2017-09-18T00:50:02.604Z,0
2017-09-18T00:51:12.619Z,0
2017-09-18T00:52:22.638Z,0
2017-09-18T00:53:32.969Z,0
2017-09-18T00:54:43.306Z,0
2017-09-18T00:55:53.653Z,0
2017-09-18T00:57:03.345Z,0
2017-09-18T00:58:13.696Z,0
2017-09-18T00:59:24.604Z,0
2017-09-18T01:00:34.965Z,0
2017-09-18T01:01:45.316Z,0
2017-09-18T01:02:55.670Z,0
2017-09-18T01:04:06.020Z,0
2017-09-18T01:05:16.371Z,0
2017-09-18T01:06:26.700Z,0
2017-09-18T01:07:37.050Z,0
2017-09-18T01:08:47.367Z,0
2017-09-18T01:09:57.379Z,0
2017-09-18T01:11:07.401Z,0
2017-09-18T01:12:17.743Z,0
2017-09-18T01:13:28.079Z,0
2017-09-18T01:14:38.412Z,0
2017-09-18T01:15:50.569Z,0
2017-09-18T01:17:00.912Z,0
2017-09-18T01:18:11.255Z,0
2017-09-18T01:19:21.593Z,0
2017-09-18T01:20:31.949Z,0
2017-09-18T01:21:42.285Z,0
2017-09-18T01:22:51.978Z,0
2017-09-18T01:24:02.001Z,0
2017-09-18T01:25:12.350Z,0
2017-09-18T01:26:23.157Z,0
2017-09-18T01:27:33.499Z,0
2017-09-18T01:28:43.845Z,0
2017-09-18T01:29:54.170Z,0
2017-09-18T01:31:04.510Z,0
2017-09-18T01:32:14.859Z,0
2017-09-18T01:33:24.563Z,0
2017-09-18T01:34:34.595Z,0
2017-09-18T01:35:44.947Z,0
2017-09-18T01:36:54.980Z,0
2017-09-18T01:38:05.319Z,0
2017-09-18T01:39:15.653Z,0
2017-09-18T01:40:25.345Z,0
2017-09-18T01:41:35.371Z,0
2017-09-18T01:42:45.714Z,0
2017-09-18T01:43:55.737Z,0
2017-09-18T01:45:06.078Z,0
2017-09-18T01:46:16.429Z,0
2017-09-18T01:47:26.441Z,0
2017-09-18T01:48:37.012Z,0
2017-09-18T01:49:47.365Z,0
2017-09-18T01:50:57.704Z,0
2017-09-18T01:52:08.033Z,0
2017-09-18T01:53:18.418Z,0
2017-09-18T01:54:28.771Z,0
2017-09-18T01:55:39.103Z,0
2017-09-18T01:56:49.441Z,0
2017-09-18T01:57:59.801Z,0
2017-09-18T01:59:10.134Z,0
2017-09-18T02:00:20.459Z,0
2017-09-18T02:01:30.795Z,0
2017-09-18T02:02:41.137Z,0
2017-09-18T02:03:51.502Z,0
2017-09-18T02:05:01.850Z,0
2017-09-18T02:06:12.190Z,0
2017-09-18T02:07:22.536Z,0
2017-09-18T02:08:32.570Z,0
2017-09-18T02:09:42.894Z,0
2017-09-18T02:10:52.926Z,0
2017-09-18T02:12:03.271Z,0
2017-09-18T02:13:13.609Z,0
2017-09-18T02:14:23.617Z,0
2017-09-18T02:15:33.362Z,0
2017-09-18T02:16:43.691Z,0
2017-09-18T02:17:54.025Z,0
2017-09-18T02:19:04.373Z,0
2017-09-18T02:20:14.734Z,0
2017-09-18T02:21:27.268Z,0
2017-09-18T02:22:37.604Z,0
2017-09-18T02:23:47.632Z,0
2017-09-18T02:24:57.968Z,0
2017-09-18T02:26:08.339Z,0
2017-09-18T02:27:20.175Z,0
2017-09-18T02:28:30.206Z,0
2017-09-18T02:29:40.229Z,0
2017-09-18T02:30:50.575Z,0
2017-09-18T02:32:00.903Z,0
2017-09-18T02:33:10.930Z,0
2017-09-18T02:34:20.974Z,0
2017-09-18T02:35:30.987Z,0
2017-09-18T02:36:41.344Z,0
2017-09-18T02:37:51.368Z,0
2017-09-18T02:39:01.399Z,0
2017-09-18T02:40:11.740Z,0
2017-09-18T02:41:22.076Z,0
2017-09-18T02:42:32.413Z,0
2017-09-18T02:43:42.440Z,0
2017-09-18T02:44:52.797Z,0
2017-09-18T02:46:03.152Z,0
2017-09-18T02:47:13.499Z,0
2017-09-18T02:48:23.852Z,0
2017-09-18T02:49:34.197Z,0
2017-09-18T02:50:44.531Z,0
2017-09-18T02:51:54.874Z,0
2017-09-18T02:53:04.911Z,0
2017-09-18T02:54:20.103Z,0
2017-09-18T02:55:30.454Z,0
2017-09-18T02:56:40.796Z,0
2017-09-18T02:57:50.812Z,0
2017-09-18T02:59:01.148Z,0
2017-09-18T03:00:11.227Z,0
2017-09-18T03:01:21.562Z,0
2017-09-18T03:33:32.411Z,0
2017-09-18T03:34:42.444Z,0
2017-09-18T03:35:52.436Z,0
2017-09-18T03:37:02.761Z,0
2017-09-18T03:38:13.105Z,0
2017-09-18T03:39:23.475Z,0
2017-09-18T03:40:33.817Z,0
2017-09-18T03:41:44.170Z,0
2017-09-18T03:42:54.524Z,0
2017-09-18T03:44:04.556Z,0
2017-09-18T03:45:14.924Z,0
2017-09-18T03:46:25.253Z,0
2017-09-18T03:47:35.592Z,0
2017-09-18T03:48:45.934Z,0
2017-09-18T03:49:55.949Z,0
2017-09-18T03:51:06.283Z,0
2017-09-18T03:52:16.349Z,0
2017-09-18T03:53:26.686Z,0
2017-09-18T03:54:37.014Z,0
2017-09-18T03:55:47.058Z,0
2017-09-18T03:56:57.454Z,0
2017-09-18T03:58:07.787Z,0
2017-09-18T03:59:17.492Z,0
2017-09-18T04:00:27.826Z,0
2017-09-18T04:01:38.159Z,0
2017-09-18T04:02:48.534Z,0
2017-09-18T04:03:58.546Z,0
2017-09-18T04:05:08.554Z,0
2017-09-18T04:06:18.566Z,0
2017-09-18T04:07:28.900Z,0
2017-09-18T04:08:39.289Z,0
2017-09-18T04:09:48.990Z,0
2017-09-18T04:10:59.326Z,0
2017-09-18T04:12:09.374Z,0
2017-09-18T04:13:19.574Z,0
2017-09-18T04:14:29.919Z,0
2017-09-18T04:15:40.258Z,0
2017-09-18T04:16:50.270Z,0
2017-09-18T04:18:00.287Z,0
2017-09-18T04:19:10.626Z,0
2017-09-18T04:20:20.965Z,0
2017-09-18T04:21:31.298Z,0
2017-09-18T04:22:41.015Z,0
2017-09-18T04:23:51.360Z,0
2017-09-18T04:25:01.696Z,0
2017-09-18T04:26:11.730Z,0
2017-09-18T04:27:22.122Z,0
2017-09-18T04:28:32.451Z,0
2017-09-18T04:29:42.795Z,0
2017-09-18T04:30:52.546Z,0
2017-09-18T04:32:02.882Z,0
2017-09-18T04:33:13.235Z,5
2017-09-18T04:34:22.946Z,5
2017-09-18T04:35:32.975Z,5
2017-09-18T04:36:43.300Z,5
2017-09-18T04:37:53.302Z,5
2017-09-18T04:39:03.322Z,5
2017-09-18T04:40:13.667Z,5
2017-09-18T04:41:23.692Z,10
2017-09-18T04:42:34.012Z,10
2017-09-18T04:43:44.406Z,10
2017-09-18T04:44:54.418Z,10
2017-09-18T04:46:04.760Z,10
2017-09-18T04:47:15.099Z,15
2017-09-18T04:48:25.698Z,15
2017-09-18T04:49:36.046Z,15
2017-09-18T04:50:46.370Z,20
2017-09-18T04:51:56.415Z,20
2017-09-18T04:53:06.769Z,20
2017-09-18T04:54:17.103Z,20
2017-09-18T04:55:27.118Z,25
2017-09-18T04:56:37.458Z,25
2017-09-18T04:57:47.803Z,25
2017-09-18T04:58:57.839Z,30
2017-09-18T05:00:07.849Z,30
2017-09-18T05:01:17.882Z,30
2017-09-18T05:02:28.230Z,30
2017-09-18T05:03:38.571Z,30
2017-09-18T05:04:48.598Z,35
2017-09-18T05:05:58.990Z,35
2017-09-18T05:07:09.008Z,35
2017-09-18T05:08:19.042Z,35
2017-09-18T05:09:29.392Z,40
2017-09-18T05:10:39.730Z,40
2017-09-18T05:11:50.300Z,40
2017-09-18T05:13:00.625Z,40
2017-09-18T05:14:10.970Z,40
2017-09-18T05:15:21.306Z,45
2017-09-18T05:16:31.331Z,45
2017-09-18T05:17:41.347Z,45
2017-09-18T05:18:51.371Z,45
2017-09-18T05:20:01.393Z,45
2017-09-18T05:21:11.419Z,50
2017-09-18T05:22:21.428Z,50
2017-09-18T05:23:31.764Z,50
2017-09-18T05:24:43.693Z,50
2017-09-18T05:25:54.030Z,50
2017-09-18T05:27:04.358Z,55
2017-09-18T05:28:14.688Z,55
2017-09-18T05:29:24.731Z,55
2017-09-18T05:30:35.081Z,55
2017-09-18T05:31:45.096Z,60
2017-09-18T05:32:55.435Z,60
2017-09-18T05:34:05.138Z,60
2017-09-18T05:35:15.473Z,70
2017-09-18T05:36:25.870Z,70
2017-09-18T05:37:36.420Z,70
2017-09-18T05:38:46.754Z,65
2017-09-18T05:39:56.462Z,65
2017-09-18T05:41:06.818Z,65
2017-09-18T05:42:17.166Z,65
2017-09-18T05:43:27.227Z,65
2017-09-18T05:44:37.588Z,65
2017-09-18T05:45:47.927Z,65
2017-09-18T05:46:58.276Z,70
2017-09-18T05:48:08.618Z,70
2017-09-18T05:49:18.961Z,70
2017-09-18T05:50:28.989Z,70
2017-09-18T05:51:39.017Z,70
2017-09-18T05:52:49.351Z,70
2017-09-18T05:53:59.707Z,75
2017-09-18T05:55:09.734Z,75
2017-09-18T05:56:20.074Z,75
2017-09-18T05:57:30.102Z,75
2017-09-18T05:58:40.135Z,75
2017-09-18T05:59:50.517Z,80
2017-09-18T06:01:00.890Z,80
2017-09-18T06:02:11.238Z,80
2017-09-18T06:03:21.592Z,80
2017-09-18T06:04:31.613Z,80
2017-09-18T06:05:41.631Z,85
2017-09-18T06:06:51.967Z,85
2017-09-18T06:08:02.004Z,85
2017-09-18T06:09:11.719Z,85
2017-09-18T06:10:21.736Z,90
2017-09-18T06:11:32.082Z,90
2017-09-18T06:12:42.441Z,90
2017-09-18T06:13:52.778Z,90
2017-09-18T06:15:03.164Z,90
2017-09-18T06:16:13.502Z,90
2017-09-18T06:17:23.541Z,95
2017-09-18T06:18:33.877Z,95
2017-09-18T06:19:44.221Z,95
2017-09-18T06:20:54.254Z,95
2017-09-18T06:22:04.274Z,95
2017-09-18T06:23:14.627Z,95
2017-09-18T06:24:24.653Z,100
2017-09-18T06:25:35.020Z,100
2017-09-18T06:26:45.357Z,100
2017-09-18T06:27:55.684Z,100
2017-09-18T06:29:05.720Z,100
2017-09-18T06:30:16.073Z,100
2017-09-18T06:31:26.098Z,105
2017-09-18T06:32:36.455Z,105
2017-09-18T06:33:46.510Z,105
2017-09-18T06:34:56.533Z,105
2017-09-18T06:36:06.567Z,105
2017-09-18T06:37:16.902Z,105
2017-09-18T06:38:27.245Z,105
2017-09-18T06:39:37.571Z,105
2017-09-18T06:40:47.608Z,105
2017-09-18T06:41:57.641Z,105
2017-09-18T06:43:07.973Z,105
2017-09-18T06:44:18.326Z,105
2017-09-18T06:45:28.675Z,110
2017-09-18T06:46:39.009Z,110
2017-09-18T06:47:49.032Z,110
2017-09-18T06:49:00.714Z,110
2017-09-18T06:50:10.468Z,110
2017-09-18T06:51:20.498Z,110
2017-09-18T06:52:30.936Z,110
2017-09-18T06:53:40.965Z,110
2017-09-18T06:54:51.333Z,110
2017-09-18T06:56:01.371Z,110
2017-09-18T06:57:11.717Z,115
2017-09-18T06:58:23.674Z,115
2017-09-18T06:59:34.028Z,115
2017-09-18T07:00:44.377Z,115
2017-09-18T07:01:54.782Z,115
2017-09-18T07:03:05.122Z,115
2017-09-18T07:04:15.468Z,115
2017-09-18T07:05:25.495Z,115
2017-09-18T07:06:35.836Z,120
2017-09-18T07:07:46.188Z,120
2017-09-18T07:08:56.530Z,125
2017-09-18T07:10:06.898Z,120
2017-09-18T07:11:17.260Z,120
2017-09-18T07:12:27.593Z,120
2017-09-18T07:13:37.658Z,125
2017-09-18T07:14:47.364Z,125
2017-09-18T07:15:57.381Z,125
2017-09-18T07:17:09.723Z,125
2017-09-18T07:18:19.739Z,125
2017-09-18T07:19:30.110Z,130
2017-09-18T07:20:40.469Z,130
2017-09-18T07:21:50.823Z,130
2017-09-18T07:23:01.167Z,135
2017-09-18T07:24:10.584Z,135
2017-09-18T07:25:20.971Z,135
2017-09-18T07:26:31.321Z,140
2017-09-18T07:27:41.663Z,140
2017-09-18T07:28:51.679Z,145
2017-09-18T07:30:02.031Z,145
2017-09-18T07:31:12.373Z,145
2017-09-18T07:32:22.722Z,145
2017-09-18T07:33:33.080Z,145
2017-09-18T07:34:43.419Z,145
2017-09-18T07:35:53.456Z,145
2017-09-18T07:37:03.477Z,155
2017-09-18T07:38:13.501Z,145
2017-09-18T07:39:23.866Z,150
2017-09-18T07:40:33.914Z,145
2017-09-18T07:41:44.275Z,155
2017-09-18T07:42:54.607Z,155
2017-09-18T07:44:04.635Z,155
2017-09-18T07:45:14.976Z,155
2017-09-18T07:46:25.015Z,155
2017-09-18T07:47:35.373Z,155
2017-09-18T07:48:45.455Z,155
2017-09-18T07:49:55.798Z,160
2017-09-18T07:51:05.823Z,160
2017-09-18T07:52:16.171Z,160
2017-09-18T07:53:26.528Z,160
2017-09-18T07:54:36.570Z,165
2017-09-18T07:55:46.601Z,165
2017-09-18T07:56:56.968Z,170
2017-09-18T07:58:06.991Z,170
2017-09-18T07:59:17.018Z,170
2017-09-18T08:00:27.123Z,170
2017-09-18T08:01:37.453Z,170
2017-09-18T08:02:47.796Z,170
2017-09-18T08:03:58.173Z,170
2017-09-18T08:05:08.510Z,170
2017-09-18T08:06:18.893Z,170
2017-09-18T08:07:29.239Z,170
2017-09-18T08:08:39.262Z,170
2017-09-18T08:09:49.606Z,165
2017-09-18T08:10:59.939Z,165
2017-09-18T08:12:10.278Z,165
2017-09-18T08:13:20.349Z,165
2017-09-18T08:14:30.704Z,165
2017-09-18T08:15:40.727Z,170
2017-09-18T08:16:50.600Z,165
2017-09-18T08:18:00.610Z,165
2017-09-18T08:19:10.650Z,165
2017-09-18T08:20:21.003Z,165
2017-09-18T08:21:30.742Z,145
2017-09-18T08:22:41.138Z,170
2017-09-18T08:23:51.173Z,170
2017-09-18T08:25:01.206Z,145
2017-09-18T08:26:11.556Z,140
2017-09-18T08:27:21.917Z,170
2017-09-18T08:28:33.958Z,155
2017-09-18T08:29:44.287Z,180
2017-09-18T08:30:54.320Z,180
2017-09-18T08:32:04.026Z,185
2017-09-18T08:33:14.323Z,185
2017-09-18T08:34:24.746Z,185
2017-09-18T08:35:35.129Z,185
2017-09-18T08:36:45.492Z,185
2017-09-18T08:37:57.891Z,190
2017-09-18T08:39:10.785Z,185
2017-09-18T08:40:21.883Z,190
2017-09-18T08:41:32.297Z,190
2017-09-18T08:42:42.701Z,195
2017-09-18T08:43:52.749Z,190
2017-09-18T08:45:02.790Z,185
2017-09-18T08:46:13.153Z,195
2017-09-18T08:47:23.497Z,185
2017-09-18T08:48:33.852Z,170
2017-09-18T08:49:44.206Z,195
2017-09-18T08:50:54.576Z,185
2017-09-18T08:52:04.948Z,210
2017-09-18T08:53:15.300Z,210
2017-09-18T08:54:25.652Z,200
2017-09-18T08:55:36.009Z,215
2017-09-18T08:56:46.360Z,230
2017-09-18T08:57:56.391Z,230
2017-09-18T08:59:06.741Z,220
2017-09-18T09:00:19.645Z,235
2017-09-18T09:01:30.002Z,240
2017-09-18T09:02:40.389Z,250
2017-09-18T09:03:50.731Z,255
2017-09-18T09:05:01.087Z,185
2017-09-18T09:06:11.139Z,180
2017-09-18T09:07:21.500Z,180
2017-09-18T09:08:31.848Z,175
2017-09-18T09:09:42.246Z,175
2017-09-18T09:10:52.602Z,245
2017-09-18T09:12:02.958Z,240
2017-09-18T09:13:12.998Z,215
2017-09-18T09:14:23.365Z,215
2017-09-18T09:15:33.771Z,220
2017-09-18T09:16:44.130Z,225
2017-09-18T09:17:54.177Z,210
2017-09-18T09:19:04.530Z,185
2017-09-18T09:20:14.889Z,175
2017-09-18T09:21:24.970Z,180
2017-09-18T09:22:35.319Z,180
2017-09-18T09:23:45.667Z,200
2017-09-18T09:24:56.028Z,195
2017-09-18T09:26:09.348Z,210
2017-09-18T09:27:19.749Z,250
2017-09-18T09:28:30.104Z,245
2017-09-18T09:29:40.143Z,235
2017-09-18T09:30:50.494Z,180
2017-09-18T09:32:00.852Z,205
2017-09-18T09:33:11.264Z,240
2017-09-18T09:34:21.636Z,190
2017-09-18T09:35:31.698Z,255
2017-09-18T09:36:41.724Z,220
2017-09-18T09:37:52.175Z,200
2017-09-18T09:39:02.606Z,225
2017-09-18T09:40:12.643Z,190
2017-09-18T09:41:22.358Z,185
2017-09-18T09:42:32.708Z,250
2017-09-18T09:43:43.067Z,200
2017-09-18T09:44:53.482Z,200
2017-09-18T09:46:03.197Z,220
2017-09-18T09:47:13.550Z,220
2017-09-18T09:48:23.575Z,265
2017-09-18T09:49:33.930Z,215
2017-09-18T09:50:44.339Z,255
2017-09-18T09:51:54.687Z,220
2017-09-18T09:53:05.036Z,250
2017-09-18T09:54:15.406Z,270
2017-09-18T09:55:25.796Z,205
2017-09-18T09:56:35.888Z,250
2017-09-18T09:57:47.692Z,230
2017-09-18T09:58:58.039Z,235
2017-09-18T10:00:08.434Z,210
2017-09-18T10:01:18.786Z,260
2017-09-18T10:02:28.823Z,215
2017-09-18T10:03:39.169Z,260
2017-09-18T10:04:49.517Z,210
2017-09-18T10:05:59.867Z,170
2017-09-18T10:07:09.911Z,250
2017-09-18T10:08:19.638Z,245
2017-09-18T10:09:29.684Z,220
2017-09-18T10:10:39.721Z,240
2017-09-18T10:11:50.070Z,240
2017-09-18T10:13:02.620Z,235
2017-09-18T10:14:13.024Z,235
2017-09-18T10:15:23.391Z,230
2017-09-18T10:16:33.451Z,240
2017-09-18T10:17:43.805Z,240
2017-09-18T10:18:53.560Z,240
2017-09-18T10:20:03.984Z,220
2017-09-18T10:21:14.354Z,240
2017-09-18T10:22:24.704Z,240
2017-09-18T10:23:35.067Z,235
2017-09-18T10:24:45.128Z,235
2017-09-18T10:25:55.488Z,230
2017-09-18T10:27:05.885Z,235
2017-09-18T10:28:20.102Z,235
2017-09-18T10:29:30.164Z,235
2017-09-18T10:30:40.517Z,235
2017-09-18T10:31:50.585Z,240
2017-09-18T10:33:00.927Z,240
2017-09-18T10:34:11.317Z,240
2017-09-18T10:35:21.721Z,235
2017-09-18T10:36:31.449Z,240
2017-09-18T10:37:41.815Z,235
2017-09-18T10:38:52.175Z,240
2017-09-18T10:40:02.545Z,240
2017-09-18T10:41:12.578Z,235
2017-09-18T10:42:22.940Z,235
2017-09-18T10:43:33.299Z,235
2017-09-18T10:44:43.659Z,240
2017-09-18T10:45:54.054Z,235
2017-09-18T10:47:04.466Z,240
2017-09-18T10:48:14.506Z,225
2017-09-18T10:49:24.862Z,235
2017-09-18T10:50:35.223Z,235
2017-09-18T10:51:45.574Z,230
2017-09-18T10:52:55.980Z,240
2017-09-18T10:54:06.063Z,240
2017-09-18T10:55:16.417Z,240
2017-09-18T10:56:26.783Z,240
2017-09-18T10:57:36.484Z,235
2017-09-18T10:58:46.589Z,235
2017-09-18T10:59:56.950Z,235
2017-09-18T11:01:07.303Z,230
2017-09-18T11:02:17.661Z,235
2017-09-18T11:03:28.011Z,230
2017-09-18T11:04:38.104Z,230
2017-09-18T11:05:48.172Z,230
2017-09-18T11:06:58.534Z,230
2017-09-18T11:08:08.900Z,235
2017-09-18T11:09:19.249Z,235
2017-09-18T11:10:29.605Z,225
2017-09-18T11:11:39.643Z,230
2017-09-18T11:12:50.017Z,230
2017-09-18T11:23:30.634Z,250
2017-09-18T11:24:40.349Z,250
2017-09-18T11:25:50.591Z,250
2017-09-18T11:27:00.630Z,255
2017-09-18T11:28:10.977Z,255
2017-09-18T11:29:21.347Z,255
2017-09-18T11:30:31.411Z,265
2017-09-18T11:31:41.693Z,255
2017-09-18T11:32:52.087Z,270
2017-09-18T11:34:02.436Z,265
2017-09-18T11:35:12.841Z,265
2017-09-18T11:36:23.196Z,265
2017-09-18T11:37:33.552Z,265
2017-09-18T11:38:43.911Z,265
2017-09-18T11:39:53.977Z,265
2017-09-18T11:41:04.397Z,270
2017-09-18T11:42:14.752Z,265
2017-09-18T11:43:25.108Z,265
2017-09-18T11:44:35.457Z,265
2017-09-18T11:45:45.807Z,255
2017-09-18T11:46:56.169Z,235
2017-09-18T11:48:06.537Z,245
2017-09-18T11:49:16.936Z,195
2017-09-18T11:50:27.303Z,225
2017-09-18T11:51:37.663Z,230
2017-09-18T11:52:48.075Z,180
2017-09-18T11:53:58.425Z,210
2017-09-18T11:55:08.780Z,195
2017-09-18T11:56:19.131Z,215
2017-09-18T11:57:29.165Z,215
2017-09-18T11:58:39.511Z,215
2017-09-18T11:59:49.554Z,190
2017-09-18T12:00:59.908Z,200
2017-09-18T12:02:09.959Z,195
2017-09-18T12:03:19.993Z,190
2017-09-18T12:04:30.395Z,185
2017-09-18T12:05:40.429Z,185
2017-09-18T12:06:50.776Z,180
2017-09-18T12:08:01.122Z,180
2017-09-18T12:09:11.479Z,205
2017-09-18T12:10:21.870Z,250
2017-09-18T12:11:32.233Z,235
2017-09-18T12:12:42.621Z,240
2017-09-18T12:13:52.987Z,260
2017-09-18T12:15:06.167Z,245
2017-09-18T12:16:16.254Z,250
2017-09-18T12:17:26.602Z,305
2017-09-18T12:18:36.978Z,305
2017-09-18T12:19:47.021Z,285
2017-09-18T12:20:57.393Z,240
2017-09-18T12:22:07.507Z,200
2017-09-18T12:23:17.537Z,270
2017-09-18T12:24:27.913Z,265
2017-09-18T12:25:37.954Z,270
2017-09-18T12:26:47.997Z,265
2017-09-18T12:27:58.344Z,270
2017-09-18T12:29:08.711Z,290
2017-09-18T12:30:19.077Z,275
2017-09-18T12:31:29.444Z,275
2017-09-18T12:32:39.829Z,275
2017-09-18T12:33:50.190Z,285
2017-09-18T12:35:00.238Z,285
2017-09-18T12:36:10.598Z,295
2017-09-18T12:37:20.962Z,250
2017-09-18T12:38:30.997Z,240
2017-09-18T12:39:41.424Z,235
2017-09-18T12:40:51.806Z,245
2017-09-18T12:42:02.158Z,275
2017-09-18T12:43:11.562Z,275
2017-09-18T12:44:21.598Z,275
2017-09-18T12:45:31.640Z,270
2017-09-18T12:46:41.983Z,265
2017-09-18T12:47:52.351Z,270
2017-09-18T12:49:02.391Z,270
2017-09-18T12:50:12.751Z,270
2017-09-18T12:51:23.305Z,275
2017-09-18T12:52:33.661Z,275
2017-09-18T12:53:44.029Z,275
2017-09-18T12:54:54.077Z,275
2017-09-18T12:56:04.428Z,165
2017-09-18T12:57:14.788Z,175
2017-09-18T12:58:25.747Z,260
2017-09-18T12:59:35.793Z,270
2017-09-18T13:00:46.172Z,180
2017-09-18T13:01:56.542Z,170
2017-09-18T13:03:06.911Z,165
2017-09-18T13:04:17.308Z,225
2017-09-18T13:05:27.386Z,205
2017-09-18T13:06:37.730Z,160
2017-09-18T13:07:47.769Z,155
2017-09-18T13:08:57.821Z,145
2017-09-18T13:10:08.185Z,140
2017-09-18T13:11:19.389Z,135
2017-09-18T13:12:36.621Z,135
2017-09-18T13:13:49.390Z,130
2017-09-18T13:18:14.554Z,225
2017-09-18T13:19:24.916Z,160
2017-09-18T13:20:37.886Z,120
2017-09-18T13:21:48.247Z,120
2017-09-18T13:23:02.719Z,120
2017-09-18T13:24:13.083Z,120
2017-09-18T13:25:23.651Z,130
2017-09-18T13:26:36.040Z,200
2017-09-18T13:27:46.401Z,220
2017-09-18T13:28:56.768Z,125
2017-09-18T13:30:07.142Z,130
2017-09-18T13:31:16.873Z,145
2017-09-18T13:32:27.233Z,140
2017-09-18T13:33:37.248Z,165
2017-09-18T13:34:47.605Z,140
2017-09-18T13:35:57.960Z,135
2017-09-18T13:37:07.676Z,125
2017-09-18T13:38:17.725Z,120
2017-09-18T13:39:27.757Z,115
2017-09-18T13:40:38.886Z,115
2017-09-18T13:41:48.944Z,110
2017-09-18T13:42:58.989Z,105
2017-09-18T13:44:09.340Z,100
2017-09-18T13:45:19.391Z,95
2017-09-18T13:46:29.489Z,95
2017-09-18T13:47:39.857Z,95
2017-09-18T13:48:49.909Z,100
2017-09-18T13:49:59.939Z,105
2017-09-18T13:51:10.308Z,105
2017-09-18T13:52:20.646Z,110
2017-09-18T13:53:31.028Z,120
2017-09-18T13:54:41.448Z,130
2017-09-18T13:55:51.503Z,135
2017-09-18T13:57:02.518Z,155
2017-09-18T13:58:12.615Z,140
2017-09-18T13:59:23.004Z,140
2017-09-18T14:00:34.605Z,145
2017-09-18T14:01:44.662Z,145
2017-09-18T14:02:54.685Z,145
2017-09-18T14:04:05.078Z,145
2017-09-18T14:05:15.429Z,145
2017-09-18T14:06:25.804Z,145
2017-09-18T14:07:35.834Z,145
2017-09-18T14:10:01.747Z,145
2017-09-18T14:13:20.536Z,140
2017-09-18T14:14:30.576Z,140
2017-09-18T14:15:40.972Z,135
2017-09-18T14:16:51.362Z,135
2017-09-18T14:18:01.435Z,135
2017-09-18T14:19:11.795Z,135
2017-09-18T14:20:22.148Z,130
2017-09-18T14:21:32.916Z,130
2017-09-18T14:22:43.289Z,130
2017-09-18T14:23:53.636Z,130
2017-09-18T14:25:03.995Z,125
2017-09-18T14:26:14.070Z,125
2017-09-18T14:27:24.482Z,125
2017-09-18T14:28:34.836Z,120
2017-09-18T14:29:45.192Z,125
2017-09-18T14:30:55.231Z,125
2017-09-18T14:32:05.622Z,130
2017-09-18T14:33:16.020Z,120
2017-09-18T14:34:26.383Z,115
2017-09-18T14:35:36.764Z,110
2017-09-18T14:36:46.818Z,105
2017-09-18T14:37:57.204Z,100
2017-09-18T14:39:07.295Z,100
2017-09-18T14:40:17.651Z,95
2017-09-18T14:41:28.034Z,95
2017-09-18T14:42:38.385Z,95
2017-09-18T14:43:48.760Z,95
2017-09-18T14:44:59.166Z,95
2017-09-18T14:46:09.202Z,95
2017-09-18T14:47:19.561Z,90
2017-09-18T14:48:29.898Z,85
2017-09-18T14:49:40.282Z,80
2017-09-18T14:50:50.373Z,80
2017-09-18T14:52:00.733Z,75
2017-09-18T14:53:11.095Z,70
2017-09-18T14:54:21.462Z,65
2017-09-18T14:55:31.838Z,60
2017-09-18T14:56:41.878Z,55
2017-09-18T14:57:52.239Z,55
2017-09-18T14:59:02.300Z,50
2017-09-18T15:00:12.367Z,50
2017-09-18T15:01:22.714Z,50
2017-09-18T15:02:33.134Z,50
2017-09-18T15:03:43.507Z,45
2017-09-18T15:04:53.859Z,45
2017-09-18T15:06:03.913Z,45
2017-09-18T15:07:14.269Z,45
2017-09-18T15:08:24.700Z,45
2017-09-18T15:09:34.767Z,45
2017-09-18T15:10:44.512Z,45
2017-09-18T15:11:54.869Z,45
2017-09-18T15:13:05.243Z,45
2017-09-18T15:14:15.646Z,45
2017-09-18T15:15:26.001Z,40
2017-09-18T15:16:35.731Z,40
2017-09-18T15:17:46.097Z,40
2017-09-18T15:18:56.457Z,40
2017-09-18T15:20:06.883Z,40
2017-09-18T15:21:17.258Z,40
2017-09-18T15:22:27.636Z,40
2017-09-18T15:23:37.665Z,40
2017-09-18T15:24:48.037Z,40
2017-09-18T15:25:58.421Z,40
2017-09-18T15:27:08.454Z,40
2017-09-18T15:28:18.803Z,40
2017-09-18T15:29:28.851Z,40
2017-09-18T15:30:38.868Z,40
2017-09-18T15:31:49.257Z,40
2017-09-18T15:32:59.633Z,40
2017-09-18T15:34:10.002Z,40
2017-09-18T15:35:20.363Z,40
2017-09-18T15:36:30.735Z,40
2017-09-18T15:37:41.143Z,40
2017-09-18T15:38:51.506Z,40
2017-09-18T15:40:01.863Z,40
2017-09-18T15:41:11.896Z,40
2017-09-18T15:42:22.251Z,40
2017-09-18T15:43:32.663Z,45
2017-09-18T15:44:43.019Z,50
2017-09-18T15:45:53.378Z,55
2017-09-18T15:47:03.782Z,55
2017-09-18T15:48:14.139Z,55
2017-09-18T15:49:24.259Z,55
2017-09-18T15:50:34.670Z,60
2017-09-18T15:51:45.070Z,60
2017-09-18T15:52:55.122Z,60
2017-09-18T15:54:05.501Z,60
2017-09-18T15:55:15.605Z,60
2017-09-18T15:56:25.647Z,60
2017-09-18T15:57:36.012Z,60
2017-09-18T15:58:46.064Z,55
2017-09-18T15:59:56.429Z,55
2017-09-18T16:01:06.527Z,55
2017-09-18T16:02:16.893Z,50
2017-09-18T16:03:27.245Z,50
2017-09-18T16:04:37.287Z,50
2017-09-18T16:05:47.361Z,50
2017-09-18T16:06:57.387Z,50
2017-09-18T16:08:07.747Z,45
2017-09-18T16:09:18.106Z,45
2017-09-18T16:10:28.486Z,45
2017-09-18T16:11:38.831Z,45
2017-09-18T16:12:49.238Z,45
2017-09-18T16:13:59.588Z,40
2017-09-18T16:15:09.636Z,40
2017-09-18T16:16:19.987Z,45
2017-09-18T16:17:30.362Z,40
2017-09-18T16:18:40.772Z,40
2017-09-18T16:19:51.136Z,40
2017-09-18T16:21:01.526Z,40
2017-09-18T16:22:11.897Z,40
2017-09-18T16:23:21.970Z,35
2017-09-18T16:24:32.335Z,35
2017-09-18T16:25:42.406Z,35
2017-09-18T16:26:52.781Z,35
2017-09-18T16:28:02.817Z,30
2017-09-18T16:29:12.864Z,25
2017-09-18T16:30:22.915Z,25
2017-09-18T16:31:32.979Z,20
2017-09-18T16:32:43.020Z,20
2017-09-18T16:33:53.385Z,15
2017-09-18T16:35:03.738Z,15
2017-09-18T16:36:13.838Z,15
2017-09-18T16:37:23.880Z,15
2017-09-18T16:38:34.230Z,15
2017-09-18T16:39:44.608Z,10
2017-09-18T16:40:54.966Z,10
2017-09-18T16:42:05.407Z,10
2017-09-18T16:43:15.782Z,10
2017-09-18T16:44:25.836Z,10
2017-09-18T16:45:36.185Z,10
2017-09-18T16:46:45.896Z,5
2017-09-18T16:47:56.312Z,5
2017-09-18T16:49:06.365Z,5
2017-09-18T16:50:16.736Z,5
2017-09-18T16:51:27.111Z,5
2017-09-18T16:52:37.156Z,5
2017-09-18T16:53:47.519Z,5
2017-09-18T16:54:57.910Z,5
2017-09-18T16:56:08.287Z,0
2017-09-18T16:57:18.337Z,0
2017-09-18T16:58:28.718Z,0
2017-09-18T16:59:38.765Z,0
2017-09-18T17:00:49.154Z,0
2017-09-18T17:01:59.526Z,0
2017-09-18T17:03:12.037Z,0
2017-09-18T17:04:22.394Z,0
2017-09-18T17:05:32.805Z,0
2017-09-18T17:06:42.859Z,0
2017-09-18T17:07:53.234Z,0
2017-09-18T17:09:03.606Z,0
2017-09-18T17:10:13.661Z,0
2017-09-18T17:11:24.071Z,0
2017-09-18T17:12:34.136Z,0
2017-09-18T17:13:44.498Z,0
2017-09-18T17:14:56.182Z,0
2017-09-18T17:16:06.562Z,0
2017-09-18T17:17:16.961Z,0
2017-09-18T17:18:27.310Z,0
2017-09-18T17:19:37.679Z,0
2017-09-18T17:20:48.040Z,0
2017-09-18T17:21:58.396Z,0
2017-09-18T17:23:08.434Z,0